Time;durP1;ratioP1;P1;durP2;ratioP2;P2;SDS_P1;SDS_P2;PMS_P1;PMS_P2;Temp;Humidity;BMP_temperature;BMP_pressure;BME280_temperature;BME280_humidity;BME280_pressure;Samples;Min_cycle;Max_cycle;Signal;HPM_P1;HPM_P2
2022/04/07 00:01:09;;;;;;;17.95;2.75;;;35.70;13.80;;;;;;4990153;28;20156;-67
2022/04/07 00:03:36;;;;;;;22.23;3.10;;;35.60;14.20;;;;;;4988900;28;20075;-68
2022/04/07 00:06:09;;;;;;;16.92;3.17;;;35.60;13.90;;;;;;4991103;28;20403;-64
2022/04/07 00:08:39;;;;;;;17.25;2.28;;;35.60;13.80;;;;;;4974099;28;20078;-64
2022/04/07 00:11:05;;;;;;;17.60;2.85;;;35.50;14.00;;;;;;4991550;28;20520;-67
2022/04/07 00:13:32;;;;;;;11.52;2.70;;;35.50;13.90;;;;;;4986756;28;20549;-68
2022/04/07 00:16:00;;;;;;;20.30;3.13;;;35.30;13.30;;;;;;4987749;28;20551;-66
2022/04/07 00:18:29;;;;;;;15.15;2.63;;;35.10;13.90;;;;;;4987166;28;20101;-67
2022/04/07 00:20:56;;;;;;;20.83;2.80;;;35.10;14.50;;;;;;4989028;28;20150;-66
2022/04/07 00:23:23;;;;;;;17.30;3.13;;;34.90;14.60;;;;;;4987578;28;20065;-66
2022/04/07 00:25:50;;;;;;;11.45;2.33;;;34.90;15.00;;;;;;4987886;28;20069;-69
2022/04/07 00:28:16;;;;;;;20.02;2.97;;;34.90;14.70;;;;;;4989044;28;20067;-66
2022/04/07 00:30:44;;;;;;;28.38;3.28;;;34.80;14.50;;;;;;4987336;28;20092;-66
2022/04/07 00:33:11;;;;;;;21.00;3.22;;;34.70;14.50;;;;;;4986603;28;20063;-66
2022/04/07 00:35:37;;;;;;;17.02;3.00;;;34.60;14.70;;;;;;4988013;28;20061;-65
2022/04/07 00:38:04;;;;;;;14.45;2.35;;;34.50;14.30;;;;;;4987431;28;20064;-67
2022/04/07 00:40:31;;;;;;;17.77;3.03;;;34.30;14.50;;;;;;4988523;28;20184;-68
2022/04/07 00:42:58;;;;;;;16.45;2.42;;;34.20;14.70;;;;;;4996288;28;20587;-66
2022/04/07 00:45:24;;;;;;;22.42;3.72;;;34.10;14.60;;;;;;4989102;28;21084;-63
2022/04/07 00:47:51;;;;;;;20.48;3.45;;;34.00;14.80;;;;;;4990306;28;20084;-63
2022/04/07 00:50:20;;;;;;;10.30;2.45;;;33.90;15.00;;;;;;5002207;28;20110;-65
2022/04/07 00:52:57;;;;;;;70.38;6.65;;;33.80;15.30;;;;;;4988031;28;20073;-63
2022/04/07 00:55:24;;;;;;;17.00;2.80;;;33.70;15.70;;;;;;4987497;28;20116;-64
2022/04/07 00:57:51;;;;;;;32.80;3.00;;;33.70;15.70;;;;;;4987653;28;20081;-63
2022/04/07 01:00:17;;;;;;;17.88;3.13;;;33.60;15.90;;;;;;4988086;28;20416;-62
2022/04/07 01:02:43;;;;;;;14.07;2.53;;;33.50;15.40;;;;;;4987260;28;20080;-62
2022/04/07 01:05:11;;;;;;;27.48;3.28;;;33.40;15.20;;;;;;4988588;28;20080;-63
2022/04/07 01:07:39;;;;;;;24.38;3.58;;;33.30;15.80;;;;;;4988201;28;20110;-62
2022/04/07 01:10:08;;;;;;;17.08;2.97;;;33.30;15.70;;;;;;4971331;28;20443;-62
2022/04/07 01:12:36;;;;;;;19.95;2.90;;;33.20;15.90;;;;;;4990523;28;20549;-62
2022/04/07 01:15:06;;;;;;;21.75;3.03;;;33.20;15.80;;;;;;4987545;28;20124;-64
2022/04/07 01:17:34;;;;;;;16.98;2.65;;;33.10;16.10;;;;;;4987646;28;20090;-64
2022/04/07 01:20:01;;;;;;;18.48;2.58;;;32.90;16.30;;;;;;4980081;28;20163;-65
2022/04/07 01:22:28;;;;;;;30.55;3.30;;;32.90;16.40;;;;;;4990638;28;20137;-67
2022/04/07 01:24:57;;;;;;;73.15;5.82;;;32.80;16.40;;;;;;4991749;28;20472;-63
2022/04/07 01:27:24;;;;;;;16.83;2.80;;;32.60;16.70;;;;;;4991679;28;20533;-63
2022/04/07 01:29:54;;;;;;;21.27;3.28;;;32.50;17.00;;;;;;4992658;28;20123;-65
2022/04/07 01:32:35;;;;;;;18.25;2.88;;;32.40;17.10;;;;;;4995100;28;20073;-63
2022/04/07 01:35:02;;;;;;;27.63;3.47;;;32.20;17.40;;;;;;4993117;28;20483;-61
2022/04/07 01:37:30;;;;;;;17.92;3.10;;;32.10;17.90;;;;;;4992424;28;20065;-64
2022/04/07 01:39:59;;;;;;;18.00;2.90;;;32.00;18.50;;;;;;4991628;28;20071;-66
2022/04/07 01:42:26;;;;;;;30.85;3.28;;;31.90;18.40;;;;;;4993408;28;20473;-65
2022/04/07 01:44:57;;;;;;;25.90;3.38;;;31.70;18.60;;;;;;4992436;28;20418;-63
2022/04/07 01:47:23;;;;;;;15.10;2.88;;;31.60;18.90;;;;;;4992280;28;20078;-64
2022/04/07 01:50:03;;;;;;;20.67;2.55;;;31.50;19.20;;;;;;4990087;28;20528;-63
2022/04/07 01:52:30;;;;;;;16.80;2.90;;;31.40;19.20;;;;;;4991396;28;20164;-62
2022/04/07 01:54:58;;;;;;;19.70;2.65;;;31.20;19.40;;;;;;4991856;28;20100;-64
2022/04/07 01:57:25;;;;;;;22.02;3.35;;;31.10;19.60;;;;;;4992497;28;20081;-63
2022/04/07 01:59:53;;;;;;;28.58;3.40;;;31.00;19.70;;;;;;4976324;28;20593;-64
2022/04/07 02:02:21;;;;;;;21.70;3.47;;;30.80;19.90;;;;;;4974749;28;20164;-62
2022/04/07 02:04:59;;;;;;;20.55;3.13;;;30.70;20.20;;;;;;4990983;28;20073;-63
2022/04/07 02:07:30;;;;;;;21.75;3.78;;;30.60;20.20;;;;;;4990923;28;20078;-64
2022/04/07 02:09:57;;;;;;;26.77;3.50;;;30.50;20.00;;;;;;4991880;28;20128;-64
2022/04/07 02:12:23;;;;;;;25.70;3.88;;;30.40;19.80;;;;;;4993102;28;20070;-63
2022/04/07 02:14:50;;;;;;;25.20;3.35;;;30.30;19.90;;;;;;4990082;28;20113;-62
2022/04/07 02:17:23;;;;;;;26.58;3.85;;;30.20;20.00;;;;;;4990975;28;20096;-63
2022/04/07 02:19:51;;;;;;;32.75;3.40;;;30.10;19.70;;;;;;4991392;28;20161;-65
2022/04/07 02:22:17;;;;;;;38.40;3.50;;;30.00;19.70;;;;;;4991191;28;20449;-63
2022/04/07 02:24:45;;;;;;;26.60;3.65;;;29.90;19.80;;;;;;4991612;28;20158;-62
2022/04/07 02:27:12;;;;;;;32.53;3.88;;;29.80;20.00;;;;;;4990500;28;20176;-65
2022/04/07 02:29:38;;;;;;;33.50;4.03;;;29.70;20.20;;;;;;4990236;28;20181;-63
2022/04/07 02:32:05;;;;;;;21.02;3.35;;;29.50;20.20;;;;;;4990187;28;20444;-65
2022/04/07 02:34:32;;;;;;;20.85;3.35;;;29.40;20.20;;;;;;4990130;28;20069;-64
2022/04/07 02:36:58;;;;;;;32.15;3.97;;;29.40;20.20;;;;;;4990958;28;20074;-64
2022/04/07 02:39:24;;;;;;;17.60;3.28;;;29.30;20.30;;;;;;4991876;28;20074;-64
2022/04/07 02:41:51;;;;;;;23.08;3.90;;;29.20;20.20;;;;;;4991325;28;20105;-66
2022/04/07 02:44:18;;;;;;;28.35;4.40;;;29.10;20.60;;;;;;4991625;28;20074;-63
2022/04/07 02:46:44;;;;;;;21.90;3.90;;;29.00;20.70;;;;;;4990072;28;20445;-66
2022/04/07 02:49:11;;;;;;;24.52;3.75;;;28.90;20.70;;;;;;4988749;28;20249;-62
2022/04/07 02:51:37;;;;;;;20.88;3.78;;;28.80;20.90;;;;;;4986626;28;20081;-64
2022/04/07 02:54:04;;;;;;;27.60;4.25;;;28.70;21.10;;;;;;4989880;28;20073;-64
2022/04/07 02:56:30;;;;;;;22.85;3.40;;;28.60;21.40;;;;;;4991047;28;20325;-64
2022/04/07 02:58:57;;;;;;;20.55;4.45;;;28.50;21.40;;;;;;4976427;28;20070;-63
2022/04/07 03:01:24;;;;;;;17.98;4.10;;;28.50;21.40;;;;;;4990668;28;20077;-62
2022/04/07 03:03:55;;;;;;;17.42;4.60;;;28.30;21.50;;;;;;4992099;28;20109;-62
2022/04/07 03:06:22;;;;;;;33.28;5.90;;;28.20;21.60;;;;;;4990728;28;20116;-64
2022/04/07 03:08:50;;;;;;;26.50;4.03;;;28.10;21.70;;;;;;4990083;28;20576;-66
2022/04/07 03:11:17;;;;;;;26.95;4.38;;;27.90;21.60;;;;;;4989927;28;20451;-63
2022/04/07 03:13:43;;;;;;;21.52;3.70;;;27.80;21.60;;;;;;4989236;28;20114;-64
2022/04/07 03:16:10;;;;;;;19.50;3.50;;;27.70;21.80;;;;;;4990408;28;20097;-63
2022/04/07 03:18:36;;;;;;;22.75;4.03;;;27.70;21.90;;;;;;4993272;28;20098;-63
2022/04/07 03:21:03;;;;;;;24.23;6.32;;;27.60;22.10;;;;;;4995874;28;20077;-62
2022/04/07 03:23:29;;;;;;;35.97;7.10;;;27.50;21.10;;;;;;4988350;28;20101;-63
2022/04/07 03:25:55;;;;;;;26.38;7.63;;;27.50;20.80;;;;;;4991474;28;20081;-62
2022/04/07 03:28:22;;;;;;;30.13;6.93;;;27.50;20.80;;;;;;4989784;28;20169;-64
2022/04/07 03:30:48;;;;;;;29.40;6.18;;;27.40;21.00;;;;;;4989725;28;20086;-62
2022/04/07 03:33:15;;;;;;;23.40;5.03;;;27.40;21.20;;;;;;4990749;28;20070;-66
2022/04/07 03:35:42;;;;;;;24.67;5.43;;;27.30;21.30;;;;;;4989145;28;20150;-64
2022/04/07 03:38:09;;;;;;;23.52;5.03;;;27.10;21.40;;;;;;4989908;28;20530;-62
2022/04/07 03:40:35;;;;;;;19.00;5.47;;;27.00;21.50;;;;;;4990541;28;20078;-63
2022/04/07 03:43:03;;;;;;;23.85;4.60;;;26.90;21.40;;;;;;4990029;28;20077;-62
2022/04/07 03:45:29;;;;;;;33.33;4.78;;;26.90;21.40;;;;;;4988980;28;20081;-66
2022/04/07 03:47:56;;;;;;;26.45;4.22;;;26.80;21.20;;;;;;4988437;28;20082;-65
2022/04/07 03:50:23;;;;;;;30.45;4.55;;;26.70;21.10;;;;;;4989738;28;20621;-64
2022/04/07 03:52:49;;;;;;;31.25;4.43;;;26.60;20.80;;;;;;4989097;28;20070;-65
2022/04/07 03:55:16;;;;;;;27.30;4.55;;;26.60;20.60;;;;;;4990978;28;20094;-67
2022/04/07 03:57:42;;;;;;;23.63;4.22;;;26.60;20.50;;;;;;4989199;28;20538;-66
2022/04/07 04:00:09;;;;;;;23.60;4.22;;;26.60;20.30;;;;;;4990649;28;20085;-66
2022/04/07 04:02:35;;;;;;;26.40;3.88;;;26.50;20.30;;;;;;4989616;28;20189;-65
2022/04/07 04:05:02;;;;;;;31.95;4.20;;;26.50;20.10;;;;;;4988308;28;20081;-65
2022/04/07 04:07:29;;;;;;;22.98;3.90;;;26.50;20.20;;;;;;4989118;28;20081;-66
2022/04/07 04:09:55;;;;;;;21.13;3.95;;;26.40;20.40;;;;;;4990081;28;20151;-68
2022/04/07 04:12:21;;;;;;;33.05;3.88;;;26.40;20.50;;;;;;4989568;28;20548;-67
2022/04/07 04:14:48;;;;;;;27.80;3.85;;;26.40;20.50;;;;;;4989678;28;20675;-64
2022/04/07 04:17:14;;;;;;;28.00;3.85;;;26.30;20.40;;;;;;4988337;28;20074;-64
2022/04/07 04:19:41;;;;;;;21.65;3.45;;;26.30;20.40;;;;;;4989144;28;20084;-65
2022/04/07 04:22:07;;;;;;;25.70;3.70;;;26.20;20.00;;;;;;4989600;28;20078;-64
2022/04/07 04:24:33;;;;;;;33.97;3.90;;;26.20;19.90;;;;;;4987436;28;20078;-67
2022/04/07 04:27:00;;;;;;;22.85;4.47;;;26.20;19.80;;;;;;4972335;28;20082;-64
2022/04/07 04:29:26;;;;;;;33.67;4.13;;;26.20;19.80;;;;;;4972675;28;20172;-63
2022/04/07 04:31:53;;;;;;;23.23;4.60;;;26.10;19.90;;;;;;4990101;28;20082;-66
2022/04/07 04:34:19;;;;;;;33.72;5.85;;;26.10;19.90;;;;;;4989730;28;20106;-64
2022/04/07 04:36:45;;;;;;;30.50;4.95;;;26.00;19.90;;;;;;4989149;28;20070;-68
2022/04/07 04:39:12;;;;;;;31.60;4.40;;;26.00;19.60;;;;;;4988229;28;20086;-63
2022/04/07 04:41:38;;;;;;;34.20;4.22;;;26.00;19.50;;;;;;4990996;28;20105;-62
2022/04/07 04:44:04;;;;;;;42.65;4.30;;;26.00;19.10;;;;;;4989900;28;20070;-63
2022/04/07 04:46:31;;;;;;;24.50;4.50;;;26.00;18.80;;;;;;4988995;28;20445;-65
2022/04/07 04:48:58;;;;;;;20.65;4.40;;;25.90;18.60;;;;;;4988236;28;20084;-62
2022/04/07 04:51:25;;;;;;;26.95;3.13;;;25.90;18.10;;;;;;4987081;28;20095;-63
2022/04/07 04:53:51;;;;;;;23.13;2.92;;;25.90;17.50;;;;;;5002750;28;20136;-64
2022/04/07 04:56:17;;;;;;;24.15;2.78;;;25.90;17.40;;;;;;4986956;28;20090;-66
2022/04/07 04:58:44;;;;;;;32.03;3.42;;;25.90;17.00;;;;;;4989021;28;20084;-65
2022/04/07 05:01:10;;;;;;;23.77;3.55;;;25.90;17.10;;;;;;4988380;28;20563;-65
2022/04/07 05:03:36;;;;;;;27.10;2.58;;;25.90;17.10;;;;;;4988403;28;20435;-65
2022/04/07 05:06:03;;;;;;;18.33;3.05;;;25.90;17.30;;;;;;4990297;28;20682;-67
2022/04/07 05:08:30;;;;;;;26.58;2.88;;;25.90;16.90;;;;;;4986839;28;20081;-64
2022/04/07 05:10:56;;;;;;;18.85;2.40;;;25.90;16.80;;;;;;4990643;28;20101;-63
2022/04/07 05:13:22;;;;;;;26.02;2.95;;;25.90;16.60;;;;;;4987961;28;20184;-63
2022/04/07 05:15:49;;;;;;;19.60;3.03;;;25.90;16.50;;;;;;4983504;28;20085;-67
2022/04/07 05:18:15;;;;;;;21.90;3.15;;;25.90;16.40;;;;;;4988931;28;20077;-65
2022/04/07 05:20:42;;;;;;;14.38;2.85;;;25.90;16.30;;;;;;4987096;28;20073;-67
2022/04/07 05:23:08;;;;;;;19.13;2.40;;;26.00;16.30;;;;;;4987773;28;20101;-65
2022/04/07 05:25:35;;;;;;;16.63;2.75;;;25.90;16.10;;;;;;4986066;28;20078;-65
2022/04/07 05:28:01;;;;;;;18.35;2.90;;;26.00;15.90;;;;;;4988039;28;20090;-64
2022/04/07 05:30:27;;;;;;;17.52;2.80;;;26.00;16.00;;;;;;4988607;28;20446;-65
2022/04/07 05:32:54;;;;;;;21.60;2.72;;;26.00;15.90;;;;;;4987485;28;20474;-64
2022/04/07 05:35:20;;;;;;;22.08;3.53;;;26.00;16.20;;;;;;4987253;28;20129;-64
2022/04/07 05:37:47;;;;;;;50.17;5.05;;;25.90;15.80;;;;;;4988939;28;20457;-64
2022/04/07 05:40:13;;;;;;;10.52;2.75;;;25.90;15.70;;;;;;4987017;28;20085;-64
2022/04/07 05:42:40;;;;;;;54.00;4.13;;;26.00;15.70;;;;;;4988412;28;20097;-65
2022/04/07 05:45:08;;;;;;;32.15;4.32;;;26.00;15.60;;;;;;4988265;28;20089;-70
2022/04/07 05:47:40;;;;;;;15.77;2.50;;;26.00;15.80;;;;;;4987655;28;20101;-62
2022/04/07 05:50:07;;;;;;;12.50;2.17;;;25.90;15.70;;;;;;4989607;28;20155;-62
2022/04/07 05:52:33;;;;;;;10.20;2.40;;;25.90;15.70;;;;;;4985778;28;20086;-61
2022/04/07 05:55:00;;;;;;;12.48;2.60;;;26.00;15.70;;;;;;4985295;28;20473;-62
2022/04/07 05:57:27;;;;;;;10.05;2.50;;;26.00;15.60;;;;;;4987298;28;20504;-63
2022/04/07 05:59:54;;;;;;;12.07;2.13;;;26.10;15.60;;;;;;4987738;28;20139;-62
2022/04/07 06:02:20;;;;;;;18.05;2.38;;;26.10;15.50;;;;;;4988355;28;20074;-63
2022/04/07 06:04:47;;;;;;;14.15;2.55;;;26.10;15.50;;;;;;4988383;28;20074;-63
2022/04/07 06:07:13;;;;;;;16.50;2.70;;;26.10;15.60;;;;;;4988585;28;20442;-61
2022/04/07 06:09:42;;;;;;;14.27;2.33;;;26.10;15.80;;;;;;4982901;28;20220;-62
2022/04/07 06:12:09;;;;;;;17.67;2.75;;;26.10;15.70;;;;;;4990824;28;20080;-62
2022/04/07 06:14:35;;;;;;;18.48;2.50;;;26.10;15.70;;;;;;4992837;28;20110;-63
2022/04/07 06:17:03;;;;;;;14.75;2.22;;;26.00;15.60;;;;;;4974243;28;20077;-63
2022/04/07 06:19:29;;;;;;;8.90;2.30;;;26.00;15.60;;;;;;4959975;28;20100;-62
2022/04/07 06:21:56;;;;;;;13.18;2.22;;;26.00;15.50;;;;;;4974189;28;20082;-62
2022/04/07 06:24:22;;;;;;;11.57;2.30;;;26.00;15.50;;;;;;4974478;28;20454;-61
2022/04/07 06:26:49;;;;;;;18.08;2.78;;;26.00;15.40;;;;;;4973876;28;20627;-61
2022/04/07 06:29:16;;;;;;;12.70;2.70;;;25.90;15.50;;;;;;4991631;28;20092;-62
2022/04/07 06:31:42;;;;;;;17.83;2.97;;;25.90;15.50;;;;;;4990346;28;20076;-63
2022/04/07 06:34:09;;;;;;;15.27;2.67;;;25.80;16.80;;;;;;4972694;28;20126;-62
2022/04/07 06:36:35;;;;;;;15.55;2.53;;;25.80;16.50;;;;;;4959807;28;20444;-59
2022/04/07 06:39:03;;;;;;;18.25;2.75;;;25.70;16.30;;;;;;4973980;28;20098;-61
2022/04/07 06:41:29;;;;;;;19.83;2.70;;;25.60;16.50;;;;;;4974359;28;20083;-61
2022/04/07 06:43:56;;;;;;;15.43;2.30;;;25.50;17.10;;;;;;4974177;28;20527;-60
2022/04/07 06:46:22;;;;;;;16.08;3.22;;;25.40;17.50;;;;;;4990992;28;20561;-61
2022/04/07 06:48:48;;;;;;;13.32;3.58;;;25.30;18.00;;;;;;4990862;28;20070;-62
2022/04/07 06:51:15;;;;;;;20.60;3.30;;;25.10;18.70;;;;;;4973447;28;20097;-60
2022/04/07 06:53:41;;;;;;;18.83;3.10;;;25.00;19.20;;;;;;4989604;28;20122;-61
2022/04/07 06:56:09;;;;;;;11.95;2.60;;;24.80;19.60;;;;;;4988181;28;20091;-61
2022/04/07 06:58:36;;;;;;;14.60;2.47;;;24.70;20.10;;;;;;4973627;28;20604;-59
2022/04/07 07:01:03;;;;;;;20.55;2.75;;;24.70;20.50;;;;;;4974640;28;20148;-60
2022/04/07 07:03:29;;;;;;;10.00;2.35;;;24.50;20.70;;;;;;4973729;28;20079;-60
2022/04/07 07:05:58;;;;;;;21.15;2.88;;;24.30;20.90;;;;;;4973841;28;20455;-61
2022/04/07 07:08:25;;;;;;;14.90;2.83;;;24.30;20.80;;;;;;4973503;28;20106;-61
2022/04/07 07:10:52;;;;;;;20.35;3.00;;;24.20;20.50;;;;;;4976228;28;20098;-63
2022/04/07 07:13:21;;;;;;;16.38;3.00;;;24.30;20.50;;;;;;4973795;28;20117;-64
2022/04/07 07:15:48;;;;;;;15.07;2.22;;;24.20;20.60;;;;;;4972337;28;20601;-61
2022/04/07 07:18:15;;;;;;;20.92;3.08;;;24.20;20.60;;;;;;4988610;28;20094;-60
2022/04/07 07:20:42;;;;;;;29.00;2.90;;;24.10;20.40;;;;;;4972654;28;20078;-62
2022/04/07 07:23:08;;;;;;;14.10;2.38;;;24.10;20.30;;;;;;4972254;28;20502;-61
2022/04/07 07:25:35;;;;;;;16.40;2.35;;;24.10;20.70;;;;;;4969257;28;20129;-61
2022/04/07 07:28:03;;;;;;;15.43;2.67;;;24.10;20.20;;;;;;4954887;28;20083;-62
2022/04/07 07:30:30;;;;;;;17.25;2.92;;;24.10;20.10;;;;;;4972896;28;20443;-63
2022/04/07 07:32:58;;;;;;;18.00;2.75;;;24.10;20.00;;;;;;4971113;28;20077;-63
2022/04/07 07:35:25;;;;;;;13.32;2.42;;;24.10;20.00;;;;;;4973051;28;20089;-61
2022/04/07 07:38:03;;;;;;;22.77;2.40;;;24.10;20.10;;;;;;4972836;28;20077;-62
2022/04/07 07:40:33;;;;;;;19.83;3.00;;;24.10;20.00;;;;;;4989155;28;20153;-62
2022/04/07 07:43:01;;;;;;;12.55;2.67;;;24.10;20.00;;;;;;4972690;28;20438;-60
2022/04/07 07:45:30;;;;;;;15.02;2.78;;;24.10;19.80;;;;;;4989930;28;20078;-56
2022/04/07 07:47:56;;;;;;;14.93;2.50;;;24.00;19.60;;;;;;4971925;28;20451;-60
2022/04/07 07:50:23;;;;;;;13.82;2.63;;;24.00;19.40;;;;;;4972812;28;20523;-63
2022/04/07 07:52:50;;;;;;;12.63;2.20;;;24.00;19.40;;;;;;4989768;28;20756;-62
2022/04/07 07:55:17;;;;;;;12.30;2.40;;;24.00;19.70;;;;;;4968028;28;20554;-63
2022/04/07 07:57:44;;;;;;;12.85;2.63;;;24.00;20.00;;;;;;4987696;28;20075;-62
2022/04/07 08:00:14;;;;;;;18.42;3.28;;;24.00;19.70;;;;;;4972350;28;20082;-63
2022/04/07 08:02:41;;;;;;;21.50;3.00;;;23.90;19.70;;;;;;4972218;28;20170;-62
2022/04/07 08:05:07;;;;;;;13.38;2.50;;;23.90;20.10;;;;;;4971544;28;20439;-61
2022/04/07 08:07:39;;;;;;;21.40;2.63;;;23.70;20.30;;;;;;4971281;28;20075;-60
2022/04/07 08:10:06;;;;;;;18.65;2.78;;;23.70;20.50;;;;;;4970468;28;20622;-62
2022/04/07 08:12:32;;;;;;;10.85;2.38;;;23.70;20.40;;;;;;4957138;28;20145;-64
2022/04/07 08:14:59;;;;;;;20.92;2.80;;;23.60;20.10;;;;;;4986125;28;20145;-58
2022/04/07 08:17:25;;;;;;;22.38;2.55;;;23.60;20.10;;;;;;4989223;28;20074;-59
2022/04/07 08:19:51;;;;;;;10.00;2.53;;;23.60;19.70;;;;;;4987529;28;20078;-61
2022/04/07 08:22:18;;;;;;;18.83;3.00;;;23.50;19.80;;;;;;4989437;28;20531;-61
2022/04/07 08:24:44;;;;;;;15.50;2.78;;;23.50;19.80;;;;;;4987191;28;20079;-59
2022/04/07 08:27:12;;;;;;;11.80;2.55;;;23.40;19.70;;;;;;4988485;28;20094;-60
2022/04/07 08:29:40;;;;;;;13.23;2.38;;;23.40;19.90;;;;;;4971733;28;20122;-58
2022/04/07 08:32:07;;;;;;;13.50;2.20;;;23.40;20.90;;;;;;4987338;28;20688;-61
2022/04/07 08:34:35;;;;;;;12.82;2.80;;;23.30;20.60;;;;;;4989073;28;20073;-60
2022/04/07 08:37:02;;;;;;;12.75;2.58;;;23.20;20.30;;;;;;4971801;28;20217;-61
2022/04/07 08:39:29;;;;;;;14.40;2.70;;;23.10;20.40;;;;;;4972173;28;20201;-62
2022/04/07 08:41:57;;;;;;;16.50;2.58;;;23.10;20.60;;;;;;4972177;28;20089;-60
2022/04/07 08:44:31;;;;;;;16.95;2.97;;;23.10;20.70;;;;;;4987797;28;20070;-60
2022/04/07 08:46:58;;;;;;;14.55;2.35;;;23.10;21.00;;;;;;4986905;28;20169;-63
2022/04/07 08:49:27;;;;;;;20.33;2.92;;;23.10;21.40;;;;;;4988088;28;20095;-62
2022/04/07 08:51:54;;;;;;;16.17;2.58;;;23.00;21.40;;;;;;4990782;28;20074;-59
2022/04/07 08:54:21;;;;;;;18.70;3.10;;;23.00;21.90;;;;;;4988545;28;20438;-61
2022/04/07 08:56:49;;;;;;;22.60;3.00;;;23.00;22.20;;;;;;4985488;28;20449;-62
2022/04/07 08:59:16;;;;;;;19.42;3.60;;;23.00;22.90;;;;;;4971439;28;20071;-61
2022/04/07 09:01:44;;;;;;;24.88;3.08;;;22.90;23.30;;;;;;4988651;28;20077;-63
2022/04/07 09:04:14;;;;;;;27.38;3.45;;;22.90;23.90;;;;;;4987730;28;20071;-62
2022/04/07 09:06:42;;;;;;;22.40;3.53;;;22.90;24.20;;;;;;4988311;28;21124;-60
2022/04/07 09:09:18;;;;;;;27.08;3.38;;;22.90;24.40;;;;;;4988816;28;20074;-62
2022/04/07 09:11:45;;;;;;;24.20;2.97;;;22.90;24.80;;;;;;4992048;28;20089;-61
2022/04/07 09:14:13;;;;;;;23.25;3.47;;;22.90;25.00;;;;;;4990820;28;21049;-61
2022/04/07 09:16:40;;;;;;;14.98;3.30;;;22.80;25.20;;;;;;4988646;28;20093;-59
2022/04/07 09:19:08;;;;;;;26.42;3.58;;;22.80;25.20;;;;;;4970924;28;20162;-61
2022/04/07 09:21:35;;;;;;;20.13;2.63;;;22.80;24.90;;;;;;4971733;28;20082;-59
2022/04/07 09:24:07;;;;;;;20.85;3.28;;;22.80;24.80;;;;;;4971067;28;20130;-62
2022/04/07 09:26:39;;;;;;;20.17;3.95;;;22.70;24.70;;;;;;4988365;28;20071;-60
2022/04/07 09:29:11;;;;;;;16.33;3.22;;;22.70;24.60;;;;;;4987387;28;20080;-60
2022/04/07 09:31:51;;;;;;;24.15;3.92;;;22.70;24.70;;;;;;4971679;28;20078;-62
2022/04/07 09:34:30;;;;;;;23.85;3.95;;;22.70;24.80;;;;;;4989075;28;20202;-62
2022/04/07 09:37:10;;;;;;;20.45;4.18;;;22.70;25.30;;;;;;4970904;28;20094;-63
2022/04/07 09:39:39;;;;;;;24.38;4.13;;;22.70;24.90;;;;;;4987403;28;20476;-63
2022/04/07 09:42:39;;;;;;;25.48;4.00;;;22.70;25.60;;;;;;4956450;28;20461;-62
2022/04/07 09:45:07;;;;;;;19.17;4.40;;;22.50;25.40;;;;;;4878975;29;20185;-60
2022/04/07 09:47:55;;;;;;;33.60;4.40;;;22.50;25.30;;;;;;4863593;29;20093;-63
2022/04/07 09:50:29;;;;;;;23.42;3.65;;;22.50;25.70;;;;;;4894414;29;20637;-59
2022/04/07 09:53:03;;;;;;;28.55;4.60;;;22.40;25.90;;;;;;4878360;29;20081;-61
2022/04/07 09:55:43;;;;;;;22.27;4.38;;;22.30;26.00;;;;;;4878518;29;20246;-62
2022/04/07 09:58:12;;;;;;;20.50;3.45;;;22.20;26.20;;;;;;4877117;29;20107;-60
2022/04/07 10:00:40;;;;;;;34.25;4.47;;;22.20;26.50;;;;;;4878513;29;20086;-60
2022/04/07 10:03:08;;;;;;;25.08;4.57;;;22.20;27.00;;;;;;4878336;29;20287;-64
2022/04/07 10:05:35;;;;;;;24.35;4.47;;;22.20;27.20;;;;;;4892913;29;20077;-60
2022/04/07 10:08:03;;;;;;;24.80;4.15;;;22.10;27.30;;;;;;4877684;29;20581;-60
2022/04/07 10:10:30;;;;;;;18.33;3.80;;;22.00;27.70;;;;;;4893651;29;20097;-61
2022/04/07 10:13:00;;;;;;;27.88;3.40;;;22.00;28.20;;;;;;4892351;29;20101;-62
2022/04/07 10:15:27;;;;;;;25.17;3.35;;;21.90;28.50;;;;;;4898782;29;20204;-60
2022/04/07 10:17:56;;;;;;;34.80;5.38;;;21.80;28.90;;;;;;4896693;29;20073;-64
2022/04/07 10:20:33;;;;;;;24.80;3.65;;;21.70;28.90;;;;;;4946553;28;20089;-61
2022/04/07 10:23:11;;;;;;;;;;;21.70;29.10;;;;;;4990891;28;20085;-62
2022/04/07 10:25:43;;;;;;;32.72;4.07;;;21.70;29.10;;;;;;4988136;28;19958;-62
2022/04/07 10:28:11;;;;;;;16.80;3.63;;;21.70;29.00;;;;;;4958310;28;20083;-61
2022/04/07 10:30:51;;;;;;;21.35;3.28;;;21.70;28.80;;;;;;4990205;28;20912;-61
2022/04/07 10:33:41;;;;;;;20.45;3.70;;;21.60;28.60;;;;;;4988524;28;20086;-61
2022/04/07 10:36:17;;;;;;;22.13;4.05;;;21.50;28.70;;;;;;5006875;28;20070;-60
2022/04/07 10:38:47;;;;;;;28.70;10.05;;;21.40;28.20;;;;;;4990415;28;20133;-63
2022/04/07 10:41:35;;;;;;;34.80;12.55;;;21.40;27.70;;;;;;4989986;28;20091;-61
2022/04/07 10:44:24;;;;;;;35.85;13.10;;;21.30;27.50;;;;;;4991378;28;20113;-63
2022/04/07 10:47:02;;;;;;;27.45;11.05;;;21.30;27.30;;;;;;4989829;28;20559;-61
2022/04/07 10:49:30;;;;;;;33.08;9.68;;;21.30;27.20;;;;;;4990619;28;20098;-63
2022/04/07 10:51:58;;;;;;;27.40;7.30;;;21.20;26.70;;;;;;4990785;28;20134;-63
2022/04/07 10:54:30;;;;;;;23.60;7.13;;;21.20;25.70;;;;;;4992512;28;20095;-62
2022/04/07 10:57:01;;;;;;;30.55;6.68;;;21.20;25.50;;;;;;4989274;28;20085;-60
2022/04/07 10:59:31;;;;;;;26.38;6.65;;;21.20;25.80;;;;;;4987486;28;20214;-60
2022/04/07 11:02:15;;;;;;;36.08;8.23;;;21.20;26.00;;;;;;4989846;28;20074;-61
2022/04/07 11:05:08;;;;;;;22.95;7.93;;;21.10;25.60;;;;;;4989958;28;20083;-61
2022/04/07 11:07:51;;;;;;;29.80;8.02;;;21.10;25.10;;;;;;4990046;28;20086;-58
2022/04/07 11:10:37;;;;;;;23.23;7.72;;;21.10;24.90;;;;;;4988609;28;20470;-63
2022/04/07 11:13:04;;;;;;;25.17;7.80;;;21.10;24.60;;;;;;4989604;28;20067;-64
2022/04/07 11:15:43;;;;;;;28.20;6.95;;;21.00;23.60;;;;;;4974584;28;20456;-62
2022/04/07 11:18:46;;;;;;;28.30;6.28;;;21.00;23.00;;;;;;4991337;28;20561;-63
2022/04/07 11:21:13;;;;;;;17.60;5.80;;;21.10;22.70;;;;;;4981838;28;20515;-61
2022/04/07 11:23:49;;;;;;;29.48;6.55;;;21.10;22.30;;;;;;4972782;28;20094;-60
2022/04/07 11:26:21;;;;;;;28.00;6.78;;;21.10;22.30;;;;;;4972882;28;20538;-62
2022/04/07 11:29:03;;;;;;;26.42;6.95;;;21.10;22.20;;;;;;4973013;28;20886;-60
2022/04/07 11:31:49;;;;;;;29.10;8.90;;;21.10;22.30;;;;;;4990164;28;20098;-63
2022/04/07 11:34:39;;;;;;;30.83;10.82;;;21.10;22.40;;;;;;4972747;28;20067;-61
2022/04/07 11:37:16;;;;;;;46.58;15.20;;;21.00;22.40;;;;;;4990161;28;20095;-62
2022/04/07 11:39:52;;;;;;;;;;;21.00;22.60;;;;;;4990534;28;20067;-61
2022/04/07 11:42:20;;;;;;;60.40;17.40;;;21.00;22.70;;;;;;4992894;28;19958;-64
2022/04/07 11:44:47;;;;;;;48.03;15.85;;;20.90;22.80;;;;;;4993782;28;20075;-60
2022/04/07 11:47:24;;;;;;;48.65;15.52;;;20.90;23.00;;;;;;4972749;28;20098;-61
2022/04/07 11:49:51;;;;;;;56.42;17.50;;;20.80;23.20;;;;;;4973143;28;20098;-62
2022/04/07 11:52:27;;;;;;;55.28;15.48;;;20.80;23.40;;;;;;4972645;28;20109;-61
2022/04/07 11:54:54;;;;;;;51.78;14.88;;;20.80;23.60;;;;;;4972505;28;20173;-61
2022/04/07 11:57:24;;;;;;;47.80;14.48;;;20.70;23.80;;;;;;4972189;28;20490;-63
2022/04/07 11:59:50;;;;;;;42.83;12.93;;;20.70;24.00;;;;;;4987013;28;20095;-63
2022/04/07 12:02:21;;;;;;;46.10;13.07;;;20.60;24.30;;;;;;4973674;28;20075;-61
2022/04/07 12:05:01;;;;;;;40.65;11.65;;;20.60;24.60;;;;;;4988816;28;20079;-61
2022/04/07 12:07:28;;;;;;;37.10;10.60;;;20.50;24.90;;;;;;4972116;28;20082;-63
2022/04/07 12:09:57;;;;;;;31.70;9.10;;;20.50;25.40;;;;;;4988913;28;20083;-63
2022/04/07 12:12:25;;;;;;;39.28;9.27;;;20.50;25.50;;;;;;4989187;28;20166;-63
2022/04/07 12:14:52;;;;;;;37.15;9.32;;;20.50;26.00;;;;;;4984836;28;20133;-62
2022/04/07 12:17:22;;;;;;;30.23;8.75;;;20.40;26.40;;;;;;4988822;28;20125;-61
2022/04/07 12:19:49;;;;;;;41.55;10.77;;;20.30;26.10;;;;;;4988080;28;20182;-63
2022/04/07 12:22:16;;;;;;;35.13;9.00;;;20.30;26.00;;;;;;4987976;28;20090;-60
2022/04/07 12:25:00;;;;;;;37.30;9.18;;;20.30;26.00;;;;;;4988224;28;20527;-60
2022/04/07 12:27:28;;;;;;;43.00;9.25;;;20.10;26.30;;;;;;5003780;28;20079;-61
2022/04/07 12:29:55;;;;;;;30.23;9.02;;;20.10;26.60;;;;;;4987677;28;20094;-62
2022/04/07 12:32:21;;;;;;;34.20;7.85;;;20.00;27.00;;;;;;4971324;28;20077;-64
2022/04/07 12:34:51;;;;;;;29.63;6.70;;;20.00;27.30;;;;;;4988189;28;20071;-60
2022/04/07 12:37:39;;;;;;;25.80;6.50;;;19.90;27.50;;;;;;4988155;28;20093;-61
2022/04/07 12:40:27;;;;;;;25.80;5.80;;;19.90;27.80;;;;;;4988033;28;20154;-63
2022/04/07 12:42:56;;;;;;;15.52;4.38;;;19.80;28.10;;;;;;4989291;28;20866;-64
2022/04/07 12:45:22;;;;;;;24.55;4.68;;;19.80;28.50;;;;;;4987643;28;20105;-60